sensor_id;sensor_type;location;lat;lon;timestamp;P1;durP1;ratioP1;P2;durP2;ratioP2
73699;SDS011;62005;50.082;8.988;2022-08-21T00:00:38;4.60;;;2.75;;
73699;SDS011;62005;50.082;8.988;2022-08-21T00:03:05;4.20;;;2.50;;
73699;SDS011;62005;50.082;8.988;2022-08-21T00:05:33;4.32;;;2.60;;
73699;SDS011;62005;50.082;8.988;2022-08-21T00:08:01;5.53;;;2.72;;
73699;SDS011;62005;50.082;8.988;2022-08-21T00:10:27;3.97;;;2.80;;
73699;SDS011;62005;50.082;8.988;2022-08-21T00:12:53;5.22;;;2.78;;
73699;SDS011;62005;50.082;8.988;2022-08-21T00:15:21;5.18;;;2.97;;
73699;SDS011;62005;50.082;8.988;2022-08-21T00:17:48;3.78;;;2.13;;
73699;SDS011;62005;50.082;8.988;2022-08-21T00:20:14;4.63;;;2.87;;
73699;SDS011;62005;50.082;8.988;2022-08-21T00:22:40;5.85;;;2.92;;
73699;SDS011;62005;50.082;8.988;2022-08-21T00:25:06;4.72;;;2.90;;
73699;SDS011;62005;50.082;8.988;2022-08-21T00:27:33;5.55;;;3.00;;
73699;SDS011;62005;50.082;8.988;2022-08-21T00:29:58;7.05;;;3.00;;
73699;SDS011;62005;50.082;8.988;2022-08-21T00:32:24;4.35;;;3.22;;
73699;SDS011;62005;50.082;8.988;2022-08-21T00:34:52;7.28;;;2.90;;
73699;SDS011;62005;50.082;8.988;2022-08-21T00:37:18;5.50;;;3.10;;
73699;SDS011;62005;50.082;8.988;2022-08-21T00:39:44;6.38;;;2.92;;
73699;SDS011;62005;50.082;8.988;2022-08-21T00:42:09;6.43;;;3.42;;
73699;SDS011;62005;50.082;8.988;2022-08-21T00:44:39;4.38;;;2.90;;
73699;SDS011;62005;50.082;8.988;2022-08-21T00:47:05;6.72;;;3.22;;
73699;SDS011;62005;50.082;8.988;2022-08-21T00:49:30;6.07;;;3.35;;
73699;SDS011;62005;50.082;8.988;2022-08-21T00:51:57;5.17;;;2.40;;
73699;SDS011;62005;50.082;8.988;2022-08-21T00:54:25;5.10;;;2.60;;
73699;SDS011;62005;50.082;8.988;2022-08-21T00:56:57;6.00;;;3.25;;
73699;SDS011;62005;50.082;8.988;2022-08-21T00:59:25;4.28;;;2.20;;
73699;SDS011;62005;50.082;8.988;2022-08-21T01:01:53;6.90;;;2.72;;
73699;SDS011;62005;50.082;8.988;2022-08-21T01:04:19;5.45;;;2.97;;
73699;SDS011;62005;50.082;8.988;2022-08-21T01:06:45;4.72;;;3.20;;
73699;SDS011;62005;50.082;8.988;2022-08-21T01:09:11;6.25;;;3.20;;
73699;SDS011;62005;50.082;8.988;2022-08-21T01:14:03;4.90;;;3.08;;
73699;SDS011;62005;50.082;8.988;2022-08-21T01:16:29;4.28;;;2.78;;
73699;SDS011;62005;50.082;8.988;2022-08-21T01:18:55;6.53;;;3.42;;
73699;SDS011;62005;50.082;8.988;2022-08-21T01:21:22;6.00;;;3.35;;
73699;SDS011;62005;50.082;8.988;2022-08-21T01:23:51;4.63;;;3.15;;
73699;SDS011;62005;50.082;8.988;2022-08-21T01:26:19;4.35;;;3.08;;
73699;SDS011;62005;50.082;8.988;2022-08-21T01:28:49;4.90;;;2.95;;
73699;SDS011;62005;50.082;8.988;2022-08-21T01:31:22;5.82;;;3.22;;
73699;SDS011;62005;50.082;8.988;2022-08-21T01:33:49;5.80;;;3.20;;
73699;SDS011;62005;50.082;8.988;2022-08-21T01:36:14;4.13;;;2.60;;
73699;SDS011;62005;50.082;8.988;2022-08-21T01:38:40;7.87;;;4.07;;
73699;SDS011;62005;50.082;8.988;2022-08-21T01:41:05;6.53;;;3.22;;
73699;SDS011;62005;50.082;8.988;2022-08-21T01:43:31;7.43;;;3.33;;
73699;SDS011;62005;50.082;8.988;2022-08-21T01:45:57;7.75;;;3.38;;
73699;SDS011;62005;50.082;8.988;2022-08-21T01:48:22;4.97;;;3.15;;
73699;SDS011;62005;50.082;8.988;2022-08-21T01:50:48;7.90;;;3.30;;
73699;SDS011;62005;50.082;8.988;2022-08-21T01:53:13;4.05;;;2.50;;
73699;SDS011;62005;50.082;8.988;2022-08-21T01:55:40;6.15;;;3.63;;
73699;SDS011;62005;50.082;8.988;2022-08-21T01:58:06;6.47;;;3.53;;
73699;SDS011;62005;50.082;8.988;2022-08-21T02:00:32;11.48;;;3.92;;
73699;SDS011;62005;50.082;8.988;2022-08-21T02:02:57;6.18;;;2.80;;
73699;SDS011;62005;50.082;8.988;2022-08-21T02:05:22;5.20;;;2.97;;
73699;SDS011;62005;50.082;8.988;2022-08-21T02:07:49;6.63;;;3.77;;
73699;SDS011;62005;50.082;8.988;2022-08-21T02:10:18;5.55;;;3.45;;
73699;SDS011;62005;50.082;8.988;2022-08-21T02:12:46;6.10;;;3.65;;
73699;SDS011;62005;50.082;8.988;2022-08-21T02:15:12;5.40;;;3.33;;
73699;SDS011;62005;50.082;8.988;2022-08-21T02:17:41;6.30;;;2.60;;
73699;SDS011;62005;50.082;8.988;2022-08-21T02:20:10;5.80;;;2.85;;
73699;SDS011;62005;50.082;8.988;2022-08-21T02:22:40;6.00;;;3.20;;
73699;SDS011;62005;50.082;8.988;2022-08-21T02:25:05;5.18;;;2.72;;
73699;SDS011;62005;50.082;8.988;2022-08-21T02:27:36;5.57;;;2.83;;
73699;SDS011;62005;50.082;8.988;2022-08-21T02:30:04;5.00;;;3.22;;
73699;SDS011;62005;50.082;8.988;2022-08-21T02:32:30;6.05;;;3.05;;
73699;SDS011;62005;50.082;8.988;2022-08-21T02:34:55;7.15;;;3.10;;
73699;SDS011;62005;50.082;8.988;2022-08-21T02:37:21;6.13;;;3.07;;
73699;SDS011;62005;50.082;8.988;2022-08-21T02:39:46;5.17;;;3.70;;
73699;SDS011;62005;50.082;8.988;2022-08-21T02:42:11;5.40;;;3.17;;
73699;SDS011;62005;50.082;8.988;2022-08-21T02:44:37;5.37;;;3.87;;
73699;SDS011;62005;50.082;8.988;2022-08-21T02:47:02;6.55;;;3.33;;
73699;SDS011;62005;50.082;8.988;2022-08-21T02:49:27;7.57;;;3.47;;
73699;SDS011;62005;50.082;8.988;2022-08-21T02:51:53;4.73;;;3.10;;
73699;SDS011;62005;50.082;8.988;2022-08-21T02:54:18;5.67;;;3.63;;
73699;SDS011;62005;50.082;8.988;2022-08-21T02:56:43;8.30;;;3.37;;
73699;SDS011;62005;50.082;8.988;2022-08-21T02:59:08;5.90;;;3.07;;
73699;SDS011;62005;50.082;8.988;2022-08-21T03:01:34;8.43;;;3.90;;
73699;SDS011;62005;50.082;8.988;2022-08-21T03:03:59;6.60;;;3.20;;
73699;SDS011;62005;50.082;8.988;2022-08-21T03:06:24;6.10;;;4.17;;
73699;SDS011;62005;50.082;8.988;2022-08-21T03:08:50;8.73;;;3.50;;
73699;SDS011;62005;50.082;8.988;2022-08-21T03:11:16;6.40;;;3.88;;
73699;SDS011;62005;50.082;8.988;2022-08-21T03:13:42;5.38;;;3.65;;
73699;SDS011;62005;50.082;8.988;2022-08-21T03:16:08;5.53;;;2.95;;
73699;SDS011;62005;50.082;8.988;2022-08-21T03:18:34;7.35;;;4.63;;
73699;SDS011;62005;50.082;8.988;2022-08-21T03:21:00;8.32;;;3.90;;
73699;SDS011;62005;50.082;8.988;2022-08-21T03:23:25;8.20;;;4.45;;
73699;SDS011;62005;50.082;8.988;2022-08-21T03:25:51;7.23;;;3.30;;
73699;SDS011;62005;50.082;8.988;2022-08-21T03:28:18;6.00;;;3.90;;
73699;SDS011;62005;50.082;8.988;2022-08-21T03:30:47;6.40;;;3.80;;
73699;SDS011;62005;50.082;8.988;2022-08-21T03:33:14;6.30;;;4.00;;
73699;SDS011;62005;50.082;8.988;2022-08-21T03:35:41;6.88;;;4.20;;
73699;SDS011;62005;50.082;8.988;2022-08-21T03:38:08;8.85;;;4.50;;
73699;SDS011;62005;50.082;8.988;2022-08-21T03:40:33;8.57;;;4.18;;
73699;SDS011;62005;50.082;8.988;2022-08-21T03:42:58;6.25;;;3.92;;
73699;SDS011;62005;50.082;8.988;2022-08-21T03:45:24;7.28;;;3.70;;
73699;SDS011;62005;50.082;8.988;2022-08-21T03:47:54;7.30;;;3.70;;
73699;SDS011;62005;50.082;8.988;2022-08-21T03:50:22;7.70;;;4.20;;
73699;SDS011;62005;50.082;8.988;2022-08-21T03:52:50;7.82;;;4.00;;
73699;SDS011;62005;50.082;8.988;2022-08-21T03:55:16;7.10;;;3.78;;
73699;SDS011;62005;50.082;8.988;2022-08-21T03:57:41;4.53;;;3.50;;
73699;SDS011;62005;50.082;8.988;2022-08-21T04:00:07;5.53;;;3.97;;
73699;SDS011;62005;50.082;8.988;2022-08-21T04:02:35;6.40;;;3.78;;
73699;SDS011;62005;50.082;8.988;2022-08-21T04:05:00;6.32;;;3.40;;
73699;SDS011;62005;50.082;8.988;2022-08-21T04:07:26;6.18;;;3.55;;
73699;SDS011;62005;50.082;8.988;2022-08-21T04:09:51;6.10;;;3.92;;
73699;SDS011;62005;50.082;8.988;2022-08-21T04:12:17;10.47;;;4.30;;
73699;SDS011;62005;50.082;8.988;2022-08-21T04:14:42;6.20;;;4.00;;
73699;SDS011;62005;50.082;8.988;2022-08-21T04:17:07;7.97;;;5.13;;
73699;SDS011;62005;50.082;8.988;2022-08-21T04:19:33;5.57;;;3.87;;
73699;SDS011;62005;50.082;8.988;2022-08-21T04:21:58;5.13;;;3.93;;
73699;SDS011;62005;50.082;8.988;2022-08-21T04:24:23;4.50;;;3.50;;
73699;SDS011;62005;50.082;8.988;2022-08-21T04:26:49;6.60;;;4.30;;
73699;SDS011;62005;50.082;8.988;2022-08-21T04:29:15;5.72;;;4.07;;
73699;SDS011;62005;50.082;8.988;2022-08-21T04:31:40;6.50;;;3.67;;
73699;SDS011;62005;50.082;8.988;2022-08-21T04:34:05;5.40;;;3.53;;
73699;SDS011;62005;50.082;8.988;2022-08-21T04:36:32;5.87;;;3.80;;
73699;SDS011;62005;50.082;8.988;2022-08-21T04:38:58;7.00;;;3.88;;
73699;SDS011;62005;50.082;8.988;2022-08-21T04:41:24;6.22;;;3.08;;
73699;SDS011;62005;50.082;8.988;2022-08-21T04:43:49;5.80;;;4.10;;
73699;SDS011;62005;50.082;8.988;2022-08-21T04:46:14;6.85;;;3.63;;
73699;SDS011;62005;50.082;8.988;2022-08-21T04:48:40;6.07;;;4.03;;
73699;SDS011;62005;50.082;8.988;2022-08-21T04:51:10;7.30;;;4.45;;
73699;SDS011;62005;50.082;8.988;2022-08-21T04:53:52;7.78;;;4.00;;
73699;SDS011;62005;50.082;8.988;2022-08-21T04:56:33;5.95;;;3.60;;
73699;SDS011;62005;50.082;8.988;2022-08-21T04:59:11;8.75;;;4.25;;
73699;SDS011;62005;50.082;8.988;2022-08-21T05:01:41;6.43;;;3.60;;
73699;SDS011;62005;50.082;8.988;2022-08-21T05:04:09;6.03;;;4.07;;
73699;SDS011;62005;50.082;8.988;2022-08-21T05:06:37;7.95;;;4.63;;
73699;SDS011;62005;50.082;8.988;2022-08-21T05:09:06;7.90;;;4.82;;
73699;SDS011;62005;50.082;8.988;2022-08-21T05:11:34;5.22;;;3.42;;
73699;SDS011;62005;50.082;8.988;2022-08-21T05:14:00;6.13;;;3.88;;
73699;SDS011;62005;50.082;8.988;2022-08-21T05:16:25;8.65;;;4.45;;
73699;SDS011;62005;50.082;8.988;2022-08-21T05:18:51;6.15;;;4.05;;
73699;SDS011;62005;50.082;8.988;2022-08-21T05:21:17;6.87;;;4.43;;
73699;SDS011;62005;50.082;8.988;2022-08-21T05:23:42;6.50;;;3.75;;
73699;SDS011;62005;50.082;8.988;2022-08-21T05:26:07;7.20;;;5.00;;
73699;SDS011;62005;50.082;8.988;2022-08-21T05:28:33;7.57;;;3.90;;
73699;SDS011;62005;50.082;8.988;2022-08-21T05:30:59;7.07;;;4.20;;
73699;SDS011;62005;50.082;8.988;2022-08-21T05:33:24;6.63;;;4.00;;
73699;SDS011;62005;50.082;8.988;2022-08-21T05:35:50;8.13;;;4.03;;
73699;SDS011;62005;50.082;8.988;2022-08-21T05:38:17;8.95;;;4.18;;
73699;SDS011;62005;50.082;8.988;2022-08-21T05:40:42;6.45;;;4.15;;
73699;SDS011;62005;50.082;8.988;2022-08-21T05:43:08;6.80;;;3.97;;
73699;SDS011;62005;50.082;8.988;2022-08-21T05:45:34;8.27;;;3.88;;
73699;SDS011;62005;50.082;8.988;2022-08-21T05:48:10;7.53;;;3.73;;
73699;SDS011;62005;50.082;8.988;2022-08-21T05:50:37;7.45;;;3.90;;
73699;SDS011;62005;50.082;8.988;2022-08-21T05:53:03;8.27;;;4.72;;
73699;SDS011;62005;50.082;8.988;2022-08-21T05:55:29;8.00;;;4.35;;
73699;SDS011;62005;50.082;8.988;2022-08-21T05:57:55;7.88;;;3.70;;
73699;SDS011;62005;50.082;8.988;2022-08-21T06:00:20;7.15;;;4.03;;
73699;SDS011;62005;50.082;8.988;2022-08-21T06:02:48;5.97;;;3.70;;
73699;SDS011;62005;50.082;8.988;2022-08-21T06:05:15;8.88;;;3.97;;
73699;SDS011;62005;50.082;8.988;2022-08-21T06:07:41;7.18;;;3.85;;
73699;SDS011;62005;50.082;8.988;2022-08-21T06:10:06;5.50;;;3.77;;
73699;SDS011;62005;50.082;8.988;2022-08-21T06:12:32;6.05;;;3.40;;
73699;SDS011;62005;50.082;8.988;2022-08-21T06:14:57;7.77;;;4.00;;
73699;SDS011;62005;50.082;8.988;2022-08-21T06:17:23;6.47;;;3.47;;
73699;SDS011;62005;50.082;8.988;2022-08-21T06:19:52;5.53;;;3.35;;
73699;SDS011;62005;50.082;8.988;2022-08-21T06:22:19;7.15;;;3.63;;
73699;SDS011;62005;50.082;8.988;2022-08-21T06:24:44;5.88;;;3.53;;
73699;SDS011;62005;50.082;8.988;2022-08-21T06:27:10;5.45;;;3.28;;
73699;SDS011;62005;50.082;8.988;2022-08-21T06:29:35;7.18;;;3.55;;
73699;SDS011;62005;50.082;8.988;2022-08-21T06:32:01;7.43;;;3.60;;
73699;SDS011;62005;50.082;8.988;2022-08-21T06:34:27;6.28;;;3.38;;
73699;SDS011;62005;50.082;8.988;2022-08-21T06:36:52;7.20;;;3.43;;
73699;SDS011;62005;50.082;8.988;2022-08-21T06:39:17;6.22;;;3.33;;
73699;SDS011;62005;50.082;8.988;2022-08-21T06:41:43;5.90;;;3.15;;
73699;SDS011;62005;50.082;8.988;2022-08-21T06:44:08;6.85;;;3.50;;
73699;SDS011;62005;50.082;8.988;2022-08-21T06:46:34;6.82;;;3.60;;
73699;SDS011;62005;50.082;8.988;2022-08-21T06:49:00;5.07;;;2.58;;
73699;SDS011;62005;50.082;8.988;2022-08-21T06:51:25;6.77;;;3.63;;
73699;SDS011;62005;50.082;8.988;2022-08-21T06:53:52;5.72;;;3.10;;
73699;SDS011;62005;50.082;8.988;2022-08-21T06:56:18;7.97;;;3.40;;
73699;SDS011;62005;50.082;8.988;2022-08-21T06:58:44;6.18;;;3.33;;
73699;SDS011;62005;50.082;8.988;2022-08-21T07:01:10;5.63;;;2.88;;
73699;SDS011;62005;50.082;8.988;2022-08-21T07:03:36;7.13;;;2.67;;
73699;SDS011;62005;50.082;8.988;2022-08-21T07:06:07;9.27;;;3.03;;
73699;SDS011;62005;50.082;8.988;2022-08-21T07:08:34;6.80;;;2.75;;
73699;SDS011;62005;50.082;8.988;2022-08-21T07:11:01;6.07;;;2.95;;
73699;SDS011;62005;50.082;8.988;2022-08-21T07:13:28;4.82;;;3.08;;
73699;SDS011;62005;50.082;8.988;2022-08-21T07:15:55;5.55;;;3.00;;
73699;SDS011;62005;50.082;8.988;2022-08-21T07:18:29;5.40;;;3.35;;
73699;SDS011;62005;50.082;8.988;2022-08-21T07:21:35;5.30;;;2.50;;
73699;SDS011;62005;50.082;8.988;2022-08-21T07:24:14;5.68;;;2.78;;
73699;SDS011;62005;50.082;8.988;2022-08-21T07:26:40;6.73;;;2.80;;
73699;SDS011;62005;50.082;8.988;2022-08-21T07:29:06;7.45;;;2.58;;
73699;SDS011;62005;50.082;8.988;2022-08-21T07:31:31;8.43;;;2.92;;
73699;SDS011;62005;50.082;8.988;2022-08-21T07:33:57;8.23;;;3.22;;
73699;SDS011;62005;50.082;8.988;2022-08-21T07:36:22;5.38;;;2.80;;
73699;SDS011;62005;50.082;8.988;2022-08-21T07:38:48;5.82;;;2.90;;
73699;SDS011;62005;50.082;8.988;2022-08-21T07:41:18;5.72;;;2.83;;
73699;SDS011;62005;50.082;8.988;2022-08-21T07:43:46;4.82;;;2.30;;
73699;SDS011;62005;50.082;8.988;2022-08-21T07:46:12;7.38;;;2.53;;
73699;SDS011;62005;50.082;8.988;2022-08-21T07:48:37;5.82;;;2.67;;
73699;SDS011;62005;50.082;8.988;2022-08-21T07:51:06;5.28;;;2.53;;
73699;SDS011;62005;50.082;8.988;2022-08-21T07:53:34;4.20;;;2.42;;
73699;SDS011;62005;50.082;8.988;2022-08-21T07:56:01;4.88;;;2.40;;
73699;SDS011;62005;50.082;8.988;2022-08-21T07:58:27;7.28;;;2.38;;
73699;SDS011;62005;50.082;8.988;2022-08-21T08:00:52;7.32;;;2.50;;
73699;SDS011;62005;50.082;8.988;2022-08-21T08:03:18;6.70;;;2.35;;
73699;SDS011;62005;50.082;8.988;2022-08-21T08:05:43;8.17;;;2.73;;
73699;SDS011;62005;50.082;8.988;2022-08-21T08:08:08;7.10;;;2.40;;
73699;SDS011;62005;50.082;8.988;2022-08-21T08:10:34;5.40;;;2.23;;
73699;SDS011;62005;50.082;8.988;2022-08-21T08:15:26;3.92;;;2.00;;
73699;SDS011;62005;50.082;8.988;2022-08-21T08:17:52;6.65;;;1.60;;
73699;SDS011;62005;50.082;8.988;2022-08-21T08:20:19;4.53;;;2.03;;
73699;SDS011;62005;50.082;8.988;2022-08-21T08:22:46;8.43;;;1.73;;
73699;SDS011;62005;50.082;8.988;2022-08-21T08:25:12;6.10;;;1.80;;
73699;SDS011;62005;50.082;8.988;2022-08-21T08:30:04;6.47;;;2.35;;
73699;SDS011;62005;50.082;8.988;2022-08-21T08:32:31;3.97;;;1.60;;
73699;SDS011;62005;50.082;8.988;2022-08-21T08:34:56;5.32;;;1.67;;
73699;SDS011;62005;50.082;8.988;2022-08-21T08:37:22;5.63;;;1.97;;
73699;SDS011;62005;50.082;8.988;2022-08-21T08:39:47;4.90;;;1.90;;
73699;SDS011;62005;50.082;8.988;2022-08-21T08:42:16;5.22;;;1.65;;
73699;SDS011;62005;50.082;8.988;2022-08-21T08:44:47;4.35;;;1.60;;
73699;SDS011;62005;50.082;8.988;2022-08-21T08:49:59;5.00;;;1.63;;
73699;SDS011;62005;50.082;8.988;2022-08-21T08:52:27;3.95;;;1.40;;
73699;SDS011;62005;50.082;8.988;2022-08-21T08:55:00;9.00;;;1.52;;
73699;SDS011;62005;50.082;8.988;2022-08-21T08:57:31;6.40;;;1.70;;
73699;SDS011;62005;50.082;8.988;2022-08-21T09:02:24;4.88;;;1.63;;
73699;SDS011;62005;50.082;8.988;2022-08-21T09:04:52;5.30;;;1.75;;
73699;SDS011;62005;50.082;8.988;2022-08-21T09:10:21;4.45;;;1.40;;
73699;SDS011;62005;50.082;8.988;2022-08-21T09:15:33;5.13;;;1.65;;
73699;SDS011;62005;50.082;8.988;2022-08-21T09:18:15;3.72;;;1.60;;
73699;SDS011;62005;50.082;8.988;2022-08-21T09:20:57;3.38;;;1.08;;
73699;SDS011;62005;50.082;8.988;2022-08-21T09:26:47;4.40;;;1.73;;
73699;SDS011;62005;50.082;8.988;2022-08-21T09:29:20;6.38;;;1.50;;
73699;SDS011;62005;50.082;8.988;2022-08-21T09:31:49;6.47;;;1.55;;
73699;SDS011;62005;50.082;8.988;2022-08-21T09:34:23;5.80;;;1.65;;
73699;SDS011;62005;50.082;8.988;2022-08-21T09:36:56;6.07;;;1.50;;
73699;SDS011;62005;50.082;8.988;2022-08-21T09:39:32;7.07;;;1.38;;
73699;SDS011;62005;50.082;8.988;2022-08-21T09:42:04;5.03;;;1.55;;
73699;SDS011;62005;50.082;8.988;2022-08-21T09:44:32;4.22;;;0.80;;
73699;SDS011;62005;50.082;8.988;2022-08-21T09:47:00;4.45;;;0.90;;
73699;SDS011;62005;50.082;8.988;2022-08-21T09:49:27;3.58;;;0.63;;
73699;SDS011;62005;50.082;8.988;2022-08-21T09:52:01;3.47;;;0.60;;
73699;SDS011;62005;50.082;8.988;2022-08-21T09:54:33;4.07;;;0.77;;
73699;SDS011;62005;50.082;8.988;2022-08-21T09:59:51;4.97;;;1.05;;
73699;SDS011;62005;50.082;8.988;2022-08-21T10:04:50;4.95;;;0.85;;
73699;SDS011;62005;50.082;8.988;2022-08-21T10:07:19;3.13;;;0.90;;
73699;SDS011;62005;50.082;8.988;2022-08-21T10:09:57;3.80;;;0.93;;
73699;SDS011;62005;50.082;8.988;2022-08-21T10:12:25;3.28;;;0.65;;
73699;SDS011;62005;50.082;8.988;2022-08-21T10:18:20;18.48;;;9.63;;
73699;SDS011;62005;50.082;8.988;2022-08-21T10:21:38;5.50;;;1.05;;
73699;SDS011;62005;50.082;8.988;2022-08-21T10:24:07;5.50;;;1.10;;
73699;SDS011;62005;50.082;8.988;2022-08-21T10:37:52;4.03;;;0.60;;
73699;SDS011;62005;50.082;8.988;2022-08-21T10:40:24;3.00;;;0.57;;
73699;SDS011;62005;50.082;8.988;2022-08-21T10:45:32;6.22;;;0.90;;
73699;SDS011;62005;50.082;8.988;2022-08-21T10:48:05;4.47;;;0.55;;
73699;SDS011;62005;50.082;8.988;2022-08-21T10:55:50;3.90;;;0.90;;
73699;SDS011;62005;50.082;8.988;2022-08-21T10:58:33;4.35;;;0.80;;
73699;SDS011;62005;50.082;8.988;2022-08-21T11:04:38;6.55;;;0.90;;
73699;SDS011;62005;50.082;8.988;2022-08-21T11:12:44;6.55;;;1.15;;
73699;SDS011;62005;50.082;8.988;2022-08-21T11:20:59;3.00;;;0.63;;
73699;SDS011;62005;50.082;8.988;2022-08-21T11:29:38;5.30;;;1.33;;
73699;SDS011;62005;50.082;8.988;2022-08-21T11:37:45;5.93;;;0.90;;
73699;SDS011;62005;50.082;8.988;2022-08-21T11:43:05;3.17;;;1.10;;
73699;SDS011;62005;50.082;8.988;2022-08-21T11:48:32;3.72;;;1.00;;
73699;SDS011;62005;50.082;8.988;2022-08-21T11:51:01;3.05;;;0.73;;
73699;SDS011;62005;50.082;8.988;2022-08-21T11:53:39;5.03;;;1.00;;
73699;SDS011;62005;50.082;8.988;2022-08-21T11:56:21;3.95;;;0.70;;
73699;SDS011;62005;50.082;8.988;2022-08-21T11:58:53;3.08;;;0.65;;
73699;SDS011;62005;50.082;8.988;2022-08-21T12:01:25;3.88;;;0.60;;
73699;SDS011;62005;50.082;8.988;2022-08-21T12:04:02;3.80;;;0.80;;
73699;SDS011;62005;50.082;8.988;2022-08-21T12:06:39;5.25;;;1.08;;
73699;SDS011;62005;50.082;8.988;2022-08-21T12:09:07;1.90;;;0.60;;
73699;SDS011;62005;50.082;8.988;2022-08-21T12:11:32;2.92;;;0.70;;
73699;SDS011;62005;50.082;8.988;2022-08-21T12:14:13;4.72;;;0.98;;
73699;SDS011;62005;50.082;8.988;2022-08-21T12:16:44;5.25;;;1.15;;
73699;SDS011;62005;50.082;8.988;2022-08-21T12:19:13;3.08;;;1.08;;
73699;SDS011;62005;50.082;8.988;2022-08-21T12:24:35;2.90;;;0.60;;
73699;SDS011;62005;50.082;8.988;2022-08-21T12:27:13;2.60;;;0.60;;
73699;SDS011;62005;50.082;8.988;2022-08-21T12:29:50;2.30;;;0.55;;
73699;SDS011;62005;50.082;8.988;2022-08-21T12:32:24;3.97;;;0.57;;
73699;SDS011;62005;50.082;8.988;2022-08-21T12:37:40;4.68;;;0.77;;
73699;SDS011;62005;50.082;8.988;2022-08-21T12:40:28;2.58;;;0.80;;
73699;SDS011;62005;50.082;8.988;2022-08-21T12:42:57;4.32;;;0.70;;
73699;SDS011;62005;50.082;8.988;2022-08-21T12:45:30;3.40;;;0.65;;
73699;SDS011;62005;50.082;8.988;2022-08-21T12:47:59;3.58;;;0.77;;
73699;SDS011;62005;50.082;8.988;2022-08-21T12:50:41;3.83;;;0.70;;
73699;SDS011;62005;50.082;8.988;2022-08-21T12:55:53;1.83;;;0.40;;
73699;SDS011;62005;50.082;8.988;2022-08-21T12:58:24;3.30;;;0.43;;
73699;SDS011;62005;50.082;8.988;2022-08-21T13:00:51;1.65;;;0.50;;
73699;SDS011;62005;50.082;8.988;2022-08-21T13:03:26;2.83;;;0.60;;
73699;SDS011;62005;50.082;8.988;2022-08-21T13:05:52;2.65;;;0.85;;
73699;SDS011;62005;50.082;8.988;2022-08-21T13:08:19;4.63;;;0.70;;
73699;SDS011;62005;50.082;8.988;2022-08-21T13:10:47;5.75;;;1.20;;
73699;SDS011;62005;50.082;8.988;2022-08-21T13:13:21;2.40;;;0.73;;
73699;SDS011;62005;50.082;8.988;2022-08-21T13:15:48;3.00;;;0.63;;
73699;SDS011;62005;50.082;8.988;2022-08-21T13:18:21;8.93;;;0.75;;
73699;SDS011;62005;50.082;8.988;2022-08-21T13:20:49;2.53;;;0.60;;
73699;SDS011;62005;50.082;8.988;2022-08-21T13:23:23;5.20;;;0.80;;
73699;SDS011;62005;50.082;8.988;2022-08-21T13:25:50;2.60;;;0.80;;
73699;SDS011;62005;50.082;8.988;2022-08-21T13:28:15;5.40;;;0.80;;
73699;SDS011;62005;50.082;8.988;2022-08-21T13:30:42;3.22;;;1.00;;
73699;SDS011;62005;50.082;8.988;2022-08-21T13:33:23;4.00;;;0.88;;
73699;SDS011;62005;50.082;8.988;2022-08-21T13:35:51;3.40;;;0.80;;
73699;SDS011;62005;50.082;8.988;2022-08-21T13:38:22;4.63;;;0.57;;
73699;SDS011;62005;50.082;8.988;2022-08-21T13:40:53;2.72;;;0.60;;
73699;SDS011;62005;50.082;8.988;2022-08-21T13:43:22;3.97;;;0.65;;
73699;SDS011;62005;50.082;8.988;2022-08-21T13:45:53;3.17;;;0.63;;
73699;SDS011;62005;50.082;8.988;2022-08-21T13:48:20;3.30;;;0.75;;
73699;SDS011;62005;50.082;8.988;2022-08-21T13:50:48;4.28;;;0.77;;
73699;SDS011;62005;50.082;8.988;2022-08-21T13:53:27;3.97;;;0.88;;
73699;SDS011;62005;50.082;8.988;2022-08-21T13:55:57;3.38;;;0.47;;
73699;SDS011;62005;50.082;8.988;2022-08-21T14:00:54;3.30;;;0.65;;
73699;SDS011;62005;50.082;8.988;2022-08-21T14:03:30;1.85;;;0.50;;
73699;SDS011;62005;50.082;8.988;2022-08-21T14:05:58;3.67;;;0.90;;
73699;SDS011;62005;50.082;8.988;2022-08-21T14:08:29;2.70;;;0.50;;
73699;SDS011;62005;50.082;8.988;2022-08-21T14:10:59;6.32;;;0.80;;
73699;SDS011;62005;50.082;8.988;2022-08-21T14:16:00;2.30;;;0.55;;
73699;SDS011;62005;50.082;8.988;2022-08-21T14:18:27;4.10;;;1.05;;
73699;SDS011;62005;50.082;8.988;2022-08-21T14:21:06;5.03;;;0.77;;
73699;SDS011;62005;50.082;8.988;2022-08-21T14:23:34;2.40;;;0.68;;
73699;SDS011;62005;50.082;8.988;2022-08-21T14:26:00;3.22;;;0.47;;
73699;SDS011;62005;50.082;8.988;2022-08-21T14:33:45;3.75;;;0.50;;
73699;SDS011;62005;50.082;8.988;2022-08-21T14:36:10;2.05;;;0.43;;
73699;SDS011;62005;50.082;8.988;2022-08-21T14:38:37;1.70;;;0.60;;
73699;SDS011;62005;50.082;8.988;2022-08-21T14:41:10;2.90;;;0.70;;
73699;SDS011;62005;50.082;8.988;2022-08-21T14:43:41;2.67;;;0.43;;
73699;SDS011;62005;50.082;8.988;2022-08-21T14:46:07;2.97;;;0.45;;
73699;SDS011;62005;50.082;8.988;2022-08-21T14:48:32;2.35;;;0.82;;
73699;SDS011;62005;50.082;8.988;2022-08-21T14:50:58;2.93;;;0.53;;
73699;SDS011;62005;50.082;8.988;2022-08-21T14:53:23;1.95;;;0.60;;
73699;SDS011;62005;50.082;8.988;2022-08-21T14:55:49;2.63;;;0.53;;
73699;SDS011;62005;50.082;8.988;2022-08-21T14:58:29;3.08;;;0.52;;
73699;SDS011;62005;50.082;8.988;2022-08-21T15:00:55;2.00;;;0.47;;
73699;SDS011;62005;50.082;8.988;2022-08-21T15:03:22;3.67;;;0.50;;
73699;SDS011;62005;50.082;8.988;2022-08-21T15:05:49;2.65;;;0.65;;
73699;SDS011;62005;50.082;8.988;2022-08-21T15:08:14;2.92;;;0.70;;
73699;SDS011;62005;50.082;8.988;2022-08-21T15:10:40;2.70;;;0.70;;
73699;SDS011;62005;50.082;8.988;2022-08-21T15:13:06;2.55;;;0.40;;
73699;SDS011;62005;50.082;8.988;2022-08-21T15:15:34;3.88;;;0.57;;
73699;SDS011;62005;50.082;8.988;2022-08-21T15:18:04;2.60;;;0.70;;
73699;SDS011;62005;50.082;8.988;2022-08-21T15:20:29;3.50;;;0.50;;
73699;SDS011;62005;50.082;8.988;2022-08-21T15:22:55;3.10;;;0.60;;
73699;SDS011;62005;50.082;8.988;2022-08-21T15:25:20;3.23;;;1.10;;
73699;SDS011;62005;50.082;8.988;2022-08-21T15:27:45;1.90;;;0.50;;
73699;SDS011;62005;50.082;8.988;2022-08-21T15:30:11;4.18;;;0.90;;
73699;SDS011;62005;50.082;8.988;2022-08-21T15:32:37;3.72;;;0.63;;
73699;SDS011;62005;50.082;8.988;2022-08-21T15:35:03;3.47;;;0.57;;
73699;SDS011;62005;50.082;8.988;2022-08-21T15:37:28;3.75;;;0.60;;
73699;SDS011;62005;50.082;8.988;2022-08-21T15:39:54;3.42;;;0.43;;
73699;SDS011;62005;50.082;8.988;2022-08-21T15:42:19;2.40;;;0.80;;
73699;SDS011;62005;50.082;8.988;2022-08-21T15:44:46;3.50;;;0.90;;
73699;SDS011;62005;50.082;8.988;2022-08-21T15:47:14;6.00;;;0.80;;
73699;SDS011;62005;50.082;8.988;2022-08-21T15:49:42;1.67;;;0.30;;
73699;SDS011;62005;50.082;8.988;2022-08-21T15:52:10;3.90;;;0.50;;
73699;SDS011;62005;50.082;8.988;2022-08-21T15:54:42;2.75;;;0.57;;
73699;SDS011;62005;50.082;8.988;2022-08-21T15:57:12;2.03;;;0.40;;
73699;SDS011;62005;50.082;8.988;2022-08-21T15:59:39;2.30;;;0.47;;
73699;SDS011;62005;50.082;8.988;2022-08-21T16:02:08;2.28;;;0.35;;
73699;SDS011;62005;50.082;8.988;2022-08-21T16:04:39;3.38;;;0.40;;
73699;SDS011;62005;50.082;8.988;2022-08-21T16:07:04;3.43;;;0.30;;
73699;SDS011;62005;50.082;8.988;2022-08-21T16:09:30;3.97;;;0.50;;
73699;SDS011;62005;50.082;8.988;2022-08-21T16:11:55;2.70;;;0.60;;
73699;SDS011;62005;50.082;8.988;2022-08-21T16:14:20;2.28;;;0.50;;
73699;SDS011;62005;50.082;8.988;2022-08-21T16:16:46;3.63;;;0.70;;
73699;SDS011;62005;50.082;8.988;2022-08-21T16:19:11;1.93;;;0.40;;
73699;SDS011;62005;50.082;8.988;2022-08-21T16:21:38;2.80;;;0.50;;
73699;SDS011;62005;50.082;8.988;2022-08-21T16:24:04;3.53;;;0.60;;
73699;SDS011;62005;50.082;8.988;2022-08-21T16:26:29;6.13;;;0.40;;
73699;SDS011;62005;50.082;8.988;2022-08-21T16:31:23;4.88;;;0.52;;
73699;SDS011;62005;50.082;8.988;2022-08-21T16:33:52;2.22;;;0.40;;
73699;SDS011;62005;50.082;8.988;2022-08-21T16:36:19;2.72;;;0.60;;